Weather at Cincinnati Blue Ash Airport [CLOSED]

Public forecast

Using degrees Fahrenheit for public forecast. Weather courtesy of forecast.io.

Closest aviation weather report (METAR) to Cincinnati Blue Ash Airport

Closest report is Cincinnati Municipal Airport Lunken Field, 8.7 nm (16.1 km) S. Retrieved 2020/11/24 16:53 UTC (9 minutes ago):

KLUK 241653Z 10007KT 10SM OVC090 08/01 A3028 RMK AO2 RAE1557 SLP257 P0000 T00780011

Closest aviation forecast (TAF) to Cincinnati Blue Ash Airport

Closest forecast is Cincinnati Municipal Airport Lunken Field, 8.7 nm (16.1 km) S. Retrieved 2020/11/24 12:30 UTC (5 hours ago):

TAF KLUK 241128Z 2412/2512 14007KT P6SM OVC080 FM242000 15007KT P6SM FEW070 BKN250 FM250600 16008KT P6SM SCT250 WS020/21040KT FM251000 17009KT 6SM -RA BR BKN050 OVC070 WS020/21045KT